Austin Bergstrom International Airport
KAUS : now visible

Airfield :











YOU CAN JOIN US ON...

 
LOGIN :

Register | Disclaimer

   EN    FR    IT 

 









Legend :    VFR   Marginal VFR   IFR   Intensive IFR   Very Intensive IFR
Visi :
Ceiling :
>= 8 km
>= 3000ft
5 to 8 km
1000 to 3000 ft
1500m to 5 km
500 to 1000 ft
800 to 1500m
200 to 500 ft
< 800m
< 200 ft
Symbols :   Thunderstorms  Fog  Heavy snow  Heavy precipitations  Wind > 20 kt







- Airport Elevation : 542 ft
- IATA code : AUS


KAUS - Austin Bergstrom International

CURRENT METAR :
  • 161906Z 02008KT 7SM OVC015 09/04 A2979 RMK AO2 T00940044 $

EXPIRED METARs :
  • 161853Z 02009KT 7SM OVC014 09/04 A2980 RMK AO2 SLP092 T00940044 $
  • 161753Z 03009KT 7SM OVC013 08/03 A2985 RMK AO2 SLP108 T00780033 10089 20061 58014 $
  • 161653Z 02010KT 6SM BR OVC013 07/03 A2988 RMK AO2 SLP117 T00670028 $

TAF KAUS
Valid from the 16 at 18:00 until the 18 at 00:00 UTC


161736Z 1618/1724 02008KT 6SM BR OVC012
TEMPO 1621/1623 SCT012 SCT100 BKN250
FM170100 VRB04KT 6SM BR OVC007
FM170800 29006KT 6SM BR BKN006
FM171000 31007KT P6SM FEW070 SCT250
FM171400 36012KT P6SM SCT250
KZHU FIR / North America



MET'MAP, your aeronautical weather chart ! - Copyright ORBIFLY December 2007 - Disclaimer

ORBIFLY MET'MAP TEAM :

Programming & Development : Alexandra Zaïnal
Concept & Development : Baudouin d'Aumeries
Co-Development & Prog : Marc-Olivier Méhu
Technical & hardware support : Manuel Goepfert

Contact : metmap@orbifly.com




SOURCES & CREDITS :

   NOAA       Earth
Advisory